Milltimber, United Kingdom
Current Conditions -  °F | °C
As of 12:20 PM on Monday 24 Nov 2014 (Local Time) from EGPD Reporting Station
Clear Clear  
Wind Chill: 46°   Ceiling: Unl
Heat Index: 48°   Visibility: 6mi
Dew Point: 39°   Wind: 6mph
Humidity: 71%   Direction: 220°SW
Pressure: 30.15"   Gusts: NA
Location:  57.1°N, 2.24°W
Report Text: EGPD 241220Z 22005KT 180V290 CAVOK 09/04 Q1021 NOSIG
Loading
Personal Weather Stations






























Interactive Weather Map New forecast layout! Learn more

10-Day Weather Forecast

Advertisements
Track Severe Weather on mobile